createdAt,value
2019-03-26T00:02:09.183Z,24.10
2019-03-26T00:04:38.329Z,23.77
2019-03-26T00:07:07.119Z,23.30
2019-03-26T00:09:37.391Z,19.07
2019-03-26T00:12:05.189Z,22.00
2019-03-26T00:14:33.881Z,19.93
2019-03-26T00:17:05.644Z,26.27
2019-03-26T00:19:34.530Z,14.10
2019-03-26T00:22:16.011Z,22.10
2019-03-26T00:24:45.426Z,14.17
2019-03-26T00:27:18.837Z,14.60
2019-03-26T00:29:52.523Z,12.60
2019-03-26T00:32:26.729Z,12.97
2019-03-26T00:34:58.583Z,16.47
2019-03-26T00:37:31.937Z,15.97
2019-03-26T00:39:59.649Z,16.87
2019-03-26T00:42:27.249Z,12.50
2019-03-26T00:44:54.286Z,16.97
2019-03-26T00:47:21.102Z,15.60
2019-03-26T00:49:48.991Z,14.93
2019-03-26T00:52:24.400Z,17.60
2019-03-26T00:54:54.949Z,11.43
2019-03-26T00:57:23.819Z,17.37
2019-03-26T00:59:52.613Z,13.17
2019-03-26T01:02:19.515Z,13.73
2019-03-26T01:04:46.231Z,16.33
2019-03-26T01:07:12.859Z,13.83
2019-03-26T01:09:44.900Z,20.10
2019-03-26T01:12:11.817Z,13.40
2019-03-26T01:14:38.887Z,9.57
2019-03-26T01:17:06.153Z,17.87
2019-03-26T01:19:32.881Z,17.73
2019-03-26T01:22:00.438Z,14.87
2019-03-26T01:24:29.781Z,15.23
2019-03-26T01:26:58.337Z,11.47
2019-03-26T01:29:25.467Z,12.90
2019-03-26T01:31:52.226Z,20.27
2019-03-26T01:34:18.830Z,15.43
2019-03-26T01:36:46.186Z,9.70
2019-03-26T01:39:12.863Z,13.73
2019-03-26T01:41:39.405Z,14.13
2019-03-26T01:44:06.071Z,13.17
2019-03-26T01:46:33.456Z,8.63
2019-03-26T01:49:00.921Z,16.00
2019-03-26T01:51:27.665Z,14.20
2019-03-26T01:53:54.419Z,6.10
2019-03-26T01:56:21.347Z,12.67
2019-03-26T01:58:48.270Z,11.47
2019-03-26T02:01:15.957Z,10.40
2019-03-26T02:03:43.342Z,12.77
2019-03-26T02:06:09.991Z,12.80
2019-03-26T02:08:36.896Z,9.50
2019-03-26T02:11:03.624Z,13.27
2019-03-26T02:13:34.732Z,12.63
2019-03-26T02:16:02.974Z,11.80
2019-03-26T02:18:30.111Z,15.23
2019-03-26T02:20:59.930Z,17.70
2019-03-26T02:23:27.916Z,11.23
2019-03-26T02:25:55.776Z,16.00
2019-03-26T02:28:22.592Z,18.97
2019-03-26T02:30:49.971Z,19.33
2019-03-26T02:33:16.958Z,15.07
2019-03-26T02:35:48.967Z,17.90
2019-03-26T02:38:16.877Z,21.53
2019-03-26T02:40:47.018Z,19.43
2019-03-26T02:43:16.656Z,12.80
2019-03-26T02:45:43.543Z,12.57
2019-03-26T02:48:11.247Z,10.47
2019-03-26T02:50:38.112Z,14.20
2019-03-26T02:53:08.502Z,11.43
2019-03-26T02:55:34.632Z,13.07
2019-03-26T02:58:01.820Z,12.30
2019-03-26T03:00:28.423Z,10.27
2019-03-26T03:02:54.978Z,13.23
2019-03-26T03:05:34.430Z,14.87
2019-03-26T03:07:50.328Z,11.77
2019-03-26T03:10:17.082Z,13.93
2019-03-26T03:12:43.798Z,15.13
2019-03-26T03:15:10.828Z,10.43
2019-03-26T03:17:37.450Z,14.40
2019-03-26T03:20:04.756Z,14.47
2019-03-26T03:22:31.398Z,15.90
2019-03-26T03:24:58.007Z,13.00
2019-03-26T03:27:24.641Z,16.23
2019-03-26T03:29:51.331Z,14.57
2019-03-26T03:32:17.949Z,16.20
2019-03-26T03:34:44.615Z,19.57
2019-03-26T03:37:11.216Z,13.53
2019-03-26T03:39:37.859Z,17.17
2019-03-26T03:42:04.976Z,11.73
2019-03-26T03:44:32.976Z,17.90
2019-03-26T03:47:00.678Z,13.33
2019-03-26T03:49:28.950Z,15.73
2019-03-26T03:51:56.367Z,19.07
2019-03-26T03:54:23.391Z,18.83
2019-03-26T03:56:52.221Z,18.13
2019-03-26T03:59:20.187Z,17.93
2019-03-26T04:01:46.928Z,15.03
2019-03-26T04:04:13.527Z,10.73
2019-03-26T04:06:40.236Z,14.43
2019-03-26T04:09:07.520Z,12.87
2019-03-26T04:11:34.411Z,14.97
2019-03-26T04:14:01.129Z,19.27
2019-03-26T04:16:27.739Z,14.17
2019-03-26T04:18:54.495Z,17.60
2019-03-26T04:21:21.167Z,18.37
2019-03-26T04:23:47.796Z,14.30
2019-03-26T04:26:14.438Z,17.60
2019-03-26T04:28:41.067Z,12.17
2019-03-26T04:31:08.376Z,14.27
2019-03-26T04:33:36.308Z,12.57
2019-03-26T04:36:03.215Z,12.83
2019-03-26T04:38:29.858Z,11.40
2019-03-26T04:40:57.464Z,15.87
2019-03-26T04:43:24.383Z,14.17
2019-03-26T04:45:50.994Z,14.93
2019-03-26T04:48:17.633Z,14.90
2019-03-26T04:50:44.324Z,15.10
2019-03-26T04:53:12.832Z,18.60
2019-03-26T04:55:39.574Z,22.77
2019-03-26T04:58:06.354Z,18.43
2019-03-26T05:00:33.116Z,16.57
2019-03-26T05:02:59.852Z,13.50
2019-03-26T05:05:28.539Z,16.83
2019-03-26T05:07:55.244Z,14.60
2019-03-26T05:10:21.948Z,19.10
2019-03-26T05:12:48.559Z,19.47
2019-03-26T05:15:15.283Z,13.87
2019-03-26T05:17:42.081Z,15.07
2019-03-26T05:20:08.966Z,17.47
2019-03-26T05:22:36.442Z,12.47
2019-03-26T05:25:05.527Z,18.27
2019-03-26T05:27:44.814Z,17.13
2019-03-26T05:30:01.375Z,13.63
2019-03-26T05:32:28.214Z,20.77
2019-03-26T05:34:54.972Z,13.53
2019-03-26T05:37:21.618Z,19.50
2019-03-26T05:39:48.250Z,16.07
2019-03-26T05:42:14.886Z,13.10
2019-03-26T05:44:41.586Z,15.80
2019-03-26T05:47:08.226Z,15.17
2019-03-26T05:49:34.854Z,13.80
2019-03-26T05:52:01.600Z,21.43
2019-03-26T05:54:28.367Z,15.77
2019-03-26T05:56:55.017Z,10.93
2019-03-26T05:59:21.613Z,19.70
2019-03-26T06:01:48.463Z,17.33
2019-03-26T06:04:15.753Z,17.63
2019-03-26T06:06:42.490Z,21.13
2019-03-26T06:09:09.484Z,18.87
2019-03-26T06:11:36.116Z,11.77
2019-03-26T06:14:02.968Z,19.30
2019-03-26T06:16:38.379Z,18.40
2019-03-26T06:18:58.475Z,23.83
2019-03-26T06:21:25.178Z,25.23
2019-03-26T06:23:53.728Z,18.33
2019-03-26T06:26:20.454Z,15.33
2019-03-26T06:28:48.042Z,18.17
2019-03-26T06:31:14.954Z,40.70
2019-03-26T06:33:41.584Z,20.20
2019-03-26T06:36:08.422Z,15.67
2019-03-26T06:38:36.358Z,17.10
2019-03-26T06:41:03.659Z,20.80
2019-03-26T06:43:30.600Z,19.00
2019-03-26T06:45:57.436Z,17.53
2019-03-26T06:48:27.677Z,21.80
2019-03-26T06:50:54.521Z,22.50
2019-03-26T06:53:21.274Z,20.23
2019-03-26T06:55:47.848Z,20.33
2019-03-26T06:58:14.562Z,21.47
2019-03-26T07:00:41.498Z,18.40
2019-03-26T07:03:08.512Z,19.33
2019-03-26T07:05:35.499Z,16.37
2019-03-26T07:08:02.525Z,20.13
2019-03-26T07:10:29.482Z,14.13
2019-03-26T07:12:58.449Z,20.03
2019-03-26T07:15:25.288Z,26.73
2019-03-26T07:17:52.578Z,19.80
2019-03-26T07:20:19.752Z,20.87
2019-03-26T07:22:46.433Z,19.07
2019-03-26T07:25:13.252Z,26.77
2019-03-26T07:27:40.011Z,20.20
2019-03-26T07:30:08.596Z,20.40
2019-03-26T07:32:35.262Z,26.20
2019-03-26T07:35:03.111Z,20.73
2019-03-26T07:37:29.733Z,15.33
2019-03-26T07:39:56.586Z,15.00
2019-03-26T07:42:23.575Z,19.37
2019-03-26T07:44:50.386Z,21.40
2019-03-26T07:47:17.070Z,17.57
2019-03-26T07:49:43.687Z,19.27
2019-03-26T07:52:15.447Z,22.70
2019-03-26T07:54:40.988Z,27.30
2019-03-26T07:57:07.683Z,22.77
2019-03-26T07:59:34.826Z,15.43
2019-03-26T08:02:01.899Z,16.40
2019-03-26T08:04:29.163Z,20.00
2019-03-26T08:06:56.712Z,17.83
2019-03-26T08:09:23.626Z,19.20
2019-03-26T08:11:50.426Z,16.77
2019-03-26T08:14:17.343Z,13.10
2019-03-26T08:16:45.310Z,24.07
2019-03-26T08:19:13.160Z,13.93
2019-03-26T08:21:41.614Z,20.40
2019-03-26T08:24:10.244Z,19.97
2019-03-26T08:26:38.135Z,13.83
2019-03-26T08:29:06.582Z,16.37
2019-03-26T08:31:36.048Z,21.03
2019-03-26T08:34:05.205Z,22.00
2019-03-26T08:36:36.025Z,13.13
2019-03-26T08:39:09.171Z,14.30
2019-03-26T08:41:38.590Z,19.37
2019-03-26T08:44:08.066Z,14.80
2019-03-26T08:46:38.840Z,17.30
2019-03-26T08:49:06.148Z,16.43
2019-03-26T08:51:34.089Z,27.87
2019-03-26T08:54:05.185Z,21.03
2019-03-26T08:56:34.706Z,11.30
2019-03-26T08:59:02.764Z,22.40
2019-03-26T09:01:30.656Z,15.10
2019-03-26T09:03:58.982Z,15.67
2019-03-26T09:06:26.174Z,12.83
2019-03-26T09:08:54.737Z,14.33
2019-03-26T09:11:23.890Z,19.17
2019-03-26T09:13:52.399Z,18.23
2019-03-26T09:16:20.343Z,16.77
2019-03-26T09:18:48.686Z,17.17
2019-03-26T09:21:19.613Z,15.93
2019-03-26T09:23:51.645Z,17.50
2019-03-26T09:26:19.716Z,18.57
2019-03-26T09:28:54.796Z,17.90
2019-03-26T09:31:32.478Z,17.50
2019-03-26T09:34:00.433Z,16.57
2019-03-26T09:36:29.075Z,17.97
2019-03-26T09:38:56.867Z,13.80
2019-03-26T09:41:25.532Z,19.93
2019-03-26T09:43:54.382Z,19.47
2019-03-26T09:46:25.411Z,15.57
2019-03-26T09:48:53.668Z,20.83
2019-03-26T09:51:20.850Z,17.43
2019-03-26T09:53:47.492Z,14.03
2019-03-26T09:56:14.163Z,26.97
2019-03-26T09:58:41.907Z,19.63
2019-03-26T10:01:08.861Z,16.90
2019-03-26T10:03:38.516Z,17.27
2019-03-26T10:06:05.253Z,11.40
2019-03-26T10:08:32.131Z,13.93
2019-03-26T10:10:58.971Z,12.10
2019-03-26T10:13:25.927Z,14.40
2019-03-26T10:15:53.126Z,12.30
2019-03-26T10:18:20.148Z,9.70
2019-03-26T10:20:46.957Z,17.70
2019-03-26T10:23:13.921Z,18.83
2019-03-26T10:25:40.961Z,13.70
2019-03-26T10:28:07.871Z,19.30
2019-03-26T10:30:38.116Z,10.93
2019-03-26T10:33:05.777Z,16.77
2019-03-26T10:35:32.753Z,20.83
2019-03-26T10:37:59.827Z,12.97
2019-03-26T10:40:34.389Z,16.30
2019-03-26T10:43:06.557Z,20.23
2019-03-26T10:45:34.198Z,13.87
2019-03-26T10:48:01.053Z,21.80
2019-03-26T10:50:28.049Z,11.77
2019-03-26T10:52:55.542Z,19.00
2019-03-26T10:55:23.267Z,17.17
2019-03-26T10:57:50.313Z,13.83
2019-03-26T11:00:18.590Z,14.37
2019-03-26T11:02:45.568Z,11.67
2019-03-26T11:05:13.008Z,11.27
2019-03-26T11:07:42.543Z,14.67
2019-03-26T11:10:14.594Z,14.27
2019-03-26T11:12:41.245Z,15.93
2019-03-26T11:15:10.715Z,23.10
2019-03-26T11:17:37.797Z,12.43
2019-03-26T11:20:05.432Z,20.87
2019-03-26T11:22:32.692Z,9.47
2019-03-26T11:24:59.779Z,13.60
2019-03-26T11:27:26.631Z,9.13
2019-03-26T11:29:53.569Z,18.20
2019-03-26T11:32:20.443Z,15.07
2019-03-26T11:34:47.439Z,7.20
2019-03-26T11:37:14.469Z,10.40
2019-03-26T11:39:41.207Z,24.57
2019-03-26T11:42:08.039Z,12.03
2019-03-26T11:44:34.872Z,14.17
2019-03-26T11:47:01.561Z,14.33
2019-03-26T11:49:29.182Z,12.63
2019-03-26T11:51:57.777Z,13.80
2019-03-26T11:54:25.505Z,16.30
2019-03-26T11:56:52.474Z,10.90
2019-03-26T11:59:19.430Z,14.60
2019-03-26T12:01:46.267Z,16.43
2019-03-26T12:04:13.231Z,12.43
2019-03-26T12:06:39.992Z,10.07
2019-03-26T12:09:06.972Z,10.73
2019-03-26T12:11:34.425Z,11.37
2019-03-26T12:14:01.068Z,18.87
2019-03-26T12:16:28.096Z,14.10
2019-03-26T12:19:08.125Z,11.80
2019-03-26T12:21:38.820Z,8.83
2019-03-26T12:24:05.851Z,13.67
2019-03-26T12:26:33.209Z,14.43
2019-03-26T12:29:00.091Z,16.20
2019-03-26T12:31:27.099Z,9.90
2019-03-26T12:33:54.475Z,15.70
2019-03-26T12:36:21.753Z,16.70
2019-03-26T12:38:49.790Z,12.20
2019-03-26T12:41:16.635Z,17.87
2019-03-26T12:43:43.433Z,20.60
2019-03-26T12:46:10.534Z,14.10
2019-03-26T12:48:37.464Z,26.40
2019-03-26T12:51:11.323Z,11.27
2019-03-26T12:53:38.591Z,12.53
2019-03-26T12:56:05.472Z,9.83
2019-03-26T12:58:36.284Z,12.47
2019-03-26T13:01:02.016Z,17.90
2019-03-26T13:03:28.739Z,13.93
2019-03-26T13:05:56.095Z,9.20
2019-03-26T13:08:22.865Z,11.00
2019-03-26T13:10:53.806Z,14.47
2019-03-26T13:13:19.842Z,11.20
2019-03-26T13:15:50.019Z,9.67
2019-03-26T13:18:17.867Z,14.23
2019-03-26T13:20:44.582Z,13.70
2019-03-26T13:23:11.315Z,19.47
2019-03-26T13:25:38.171Z,13.17
2019-03-26T13:28:07.530Z,13.10
2019-03-26T13:30:34.416Z,14.20
2019-03-26T13:33:01.190Z,11.70
2019-03-26T13:35:27.929Z,10.43
2019-03-26T13:37:56.187Z,15.80
2019-03-26T13:40:27.459Z,11.07
2019-03-26T13:42:53.338Z,11.07
2019-03-26T13:45:20.299Z,7.70
2019-03-26T13:47:47.047Z,11.07
2019-03-26T13:50:14.191Z,18.27
2019-03-26T13:52:43.609Z,11.63
2019-03-26T13:55:10.790Z,14.73
2019-03-26T13:57:37.568Z,13.03
2019-03-26T14:00:09.483Z,12.13
2019-03-26T14:02:36.443Z,11.93
2019-03-26T14:05:06.985Z,9.43
2019-03-26T14:07:34.095Z,8.93
2019-03-26T14:10:00.842Z,25.23
2019-03-26T14:12:27.819Z,29.87
2019-03-26T14:14:54.882Z,12.07
2019-03-26T14:17:21.807Z,12.57
2019-03-26T14:19:48.527Z,15.37
2019-03-26T14:22:15.300Z,14.67
2019-03-26T14:24:42.024Z,13.63
2019-03-26T14:27:09.409Z,14.07
2019-03-26T14:29:37.217Z,15.93
2019-03-26T14:32:04.267Z,14.87
2019-03-26T14:34:32.642Z,15.73
2019-03-26T14:37:00.891Z,13.20
2019-03-26T14:39:29.005Z,13.50
2019-03-26T14:41:55.794Z,14.10
2019-03-26T14:44:22.431Z,14.93
2019-03-26T14:46:49.183Z,14.90
2019-03-26T14:49:16.208Z,15.77
2019-03-26T14:51:43.168Z,12.57
2019-03-26T14:54:11.062Z,21.40
2019-03-26T14:56:39.922Z,15.73
2019-03-26T14:59:06.923Z,20.47
2019-03-26T15:01:33.572Z,16.17
2019-03-26T15:04:00.435Z,13.80
2019-03-26T15:06:27.233Z,22.53
2019-03-26T15:08:54.799Z,14.07
2019-03-26T15:11:21.698Z,15.43
2019-03-26T15:13:49.767Z,14.23
2019-03-26T15:16:16.493Z,15.20
2019-03-26T15:18:43.562Z,17.70
2019-03-26T15:21:10.290Z,15.43
2019-03-26T15:23:36.968Z,12.57
2019-03-26T15:26:05.568Z,15.40
2019-03-26T15:28:32.219Z,16.60
2019-03-26T15:30:58.957Z,17.43
2019-03-26T15:33:26.776Z,15.93
2019-03-26T15:35:53.441Z,14.10
2019-03-26T15:38:20.849Z,14.90
2019-03-26T15:40:47.581Z,15.57
2019-03-26T15:43:15.659Z,14.60
2019-03-26T15:45:42.288Z,14.07
2019-03-26T15:48:09.300Z,14.13
2019-03-26T15:50:39.318Z,11.50
2019-03-26T15:53:06.191Z,16.50
2019-03-26T15:55:32.952Z,17.13
2019-03-26T15:58:00.139Z,13.27
2019-03-26T16:00:28.941Z,19.03
2019-03-26T16:02:56.855Z,21.67
2019-03-26T16:05:24.398Z,19.77
2019-03-26T16:07:51.152Z,17.97
2019-03-26T16:10:18.173Z,18.27
2019-03-26T16:12:48.524Z,17.73
2019-03-26T16:15:15.902Z,25.77
2019-03-26T16:17:45.386Z,21.47
2019-03-26T16:20:13.139Z,18.97
2019-03-26T16:22:40.635Z,19.60
2019-03-26T16:25:08.764Z,18.63
2019-03-26T16:27:35.750Z,13.27
2019-03-26T16:30:07.709Z,17.60
2019-03-26T16:32:34.741Z,17.03
2019-03-26T16:35:08.827Z,22.00
2019-03-26T16:37:36.608Z,17.53
2019-03-26T16:40:06.199Z,19.03
2019-03-26T16:42:42.674Z,19.67
2019-03-26T16:45:10.448Z,20.07
2019-03-26T16:47:37.090Z,20.27
2019-03-26T16:50:08.540Z,20.07
2019-03-26T16:52:36.126Z,19.07
2019-03-26T16:55:05.062Z,17.17
2019-03-26T16:57:32.507Z,21.70
2019-03-26T16:59:59.881Z,17.27
2019-03-26T17:02:27.571Z,18.63
2019-03-26T17:04:56.750Z,16.40
2019-03-26T17:07:24.255Z,19.73
2019-03-26T17:09:53.233Z,18.33
2019-03-26T17:12:22.182Z,22.77
2019-03-26T17:14:51.422Z,18.90
2019-03-26T17:17:18.353Z,25.00
2019-03-26T17:19:46.607Z,20.60
2019-03-26T17:22:14.581Z,17.00
2019-03-26T17:24:43.494Z,18.67
2019-03-26T17:27:11.535Z,22.60
2019-03-26T17:29:39.502Z,21.13
2019-03-26T17:32:09.922Z,16.87
2019-03-26T17:34:42.972Z,23.30
2019-03-26T17:37:10.982Z,18.50
2019-03-26T17:39:37.887Z,22.70
2019-03-26T17:42:16.667Z,18.50
2019-03-26T17:44:36.066Z,16.73
2019-03-26T17:47:05.135Z,17.23
2019-03-26T17:49:33.016Z,24.30
2019-03-26T17:52:00.304Z,18.00
2019-03-26T17:54:32.212Z,23.40
2019-03-26T17:57:00.911Z,23.17
2019-03-26T17:59:28.576Z,22.43
2019-03-26T18:01:57.034Z,18.63
2019-03-26T18:04:24.261Z,24.73
2019-03-26T18:06:52.553Z,23.20
2019-03-26T18:09:19.830Z,21.13
2019-03-26T18:11:46.968Z,20.10
2019-03-26T18:14:14.998Z,22.33
2019-03-26T18:16:42.688Z,30.90
2019-03-26T18:19:10.370Z,25.13
2019-03-26T18:21:50.829Z,25.30
2019-03-26T18:24:07.947Z,26.93
2019-03-26T18:26:36.964Z,21.43
2019-03-26T18:29:07.368Z,30.13
2019-03-26T18:31:36.226Z,26.03
2019-03-26T18:34:04.034Z,24.43
2019-03-26T18:36:33.589Z,25.37
2019-03-26T18:39:00.680Z,27.97
2019-03-26T18:41:29.460Z,27.63
2019-03-26T18:43:57.335Z,27.53
2019-03-26T18:46:24.497Z,24.20
2019-03-26T18:48:51.746Z,29.70
2019-03-26T18:51:19.708Z,25.50
2019-03-26T18:53:48.652Z,28.30
2019-03-26T18:56:18.926Z,31.13
2019-03-26T18:58:46.440Z,18.40
2019-03-26T19:01:18.497Z,20.57
2019-03-26T19:03:45.846Z,25.90
2019-03-26T19:06:12.805Z,25.80
2019-03-26T19:08:40.781Z,27.37
2019-03-26T19:11:07.474Z,24.97
2019-03-26T19:13:38.482Z,24.20
2019-03-26T19:16:07.324Z,21.83
2019-03-26T19:18:34.599Z,27.83
2019-03-26T19:21:02.844Z,28.40
2019-03-26T19:23:32.480Z,75.23
2019-03-26T19:25:59.216Z,25.90
2019-03-26T19:28:27.339Z,22.63
2019-03-26T19:30:55.783Z,26.13
2019-03-26T19:33:22.898Z,21.50
2019-03-26T19:35:53.065Z,20.63
2019-03-26T19:38:20.293Z,27.07
2019-03-26T19:40:47.148Z,31.63
2019-03-26T19:43:14.184Z,39.43
2019-03-26T19:45:40.997Z,29.70
2019-03-26T19:48:07.868Z,26.60
2019-03-26T19:50:34.924Z,34.07
2019-03-26T19:53:01.842Z,38.07
2019-03-26T19:55:28.654Z,30.67
2019-03-26T19:57:57.579Z,29.60
2019-03-26T20:00:26.741Z,33.07
2019-03-26T20:02:52.771Z,25.37
2019-03-26T20:05:19.609Z,28.70
2019-03-26T20:07:47.793Z,27.97
2019-03-26T20:10:17.440Z,24.50
2019-03-26T20:12:45.388Z,29.70
2019-03-26T20:15:14.649Z,29.00
2019-03-26T20:17:41.435Z,31.13
2019-03-26T20:20:09.978Z,27.37
2019-03-26T20:22:37.008Z,23.43
2019-03-26T20:25:05.331Z,32.37
2019-03-26T20:27:32.095Z,25.90
2019-03-26T20:29:58.765Z,26.23
2019-03-26T20:32:29.007Z,23.03
2019-03-26T20:34:56.809Z,23.90
2019-03-26T20:37:24.842Z,30.60
2019-03-26T20:39:51.572Z,29.50
2019-03-26T20:42:19.639Z,20.97
2019-03-26T20:44:46.832Z,21.63
2019-03-26T20:47:13.963Z,29.23
2019-03-26T20:49:40.696Z,27.80
2019-03-26T20:52:09.291Z,27.90
2019-03-26T20:54:36.947Z,26.50
2019-03-26T20:57:04.810Z,28.83
2019-03-26T20:59:31.776Z,22.47
2019-03-26T21:02:00.279Z,25.93
2019-03-26T21:04:27.948Z,28.90
2019-03-26T21:06:55.189Z,27.73
2019-03-26T21:09:21.942Z,21.97
2019-03-26T21:11:48.656Z,31.53
2019-03-26T21:14:19.419Z,30.17
2019-03-26T21:16:46.669Z,26.23
2019-03-26T21:19:14.629Z,27.77
2019-03-26T21:21:41.391Z,27.80
2019-03-26T21:24:10.162Z,28.53
2019-03-26T21:26:37.888Z,26.43
2019-03-26T21:29:06.178Z,32.87
2019-03-26T21:31:33.101Z,30.97
2019-03-26T21:34:03.733Z,25.00
2019-03-26T21:36:30.447Z,29.30
2019-03-26T21:38:57.191Z,25.33
2019-03-26T21:41:25.868Z,30.37
2019-03-26T21:44:04.079Z,33.77
2019-03-26T21:46:23.005Z,27.20
2019-03-26T21:48:49.734Z,23.30
2019-03-26T21:51:16.536Z,23.37
2019-03-26T21:53:45.425Z,26.77
2019-03-26T21:56:13.267Z,25.57
2019-03-26T21:58:43.104Z,32.37
2019-03-26T22:01:12.169Z,27.33
2019-03-26T22:03:40.141Z,28.20
2019-03-26T22:06:07.451Z,33.93
2019-03-26T22:08:34.200Z,33.57
2019-03-26T22:11:01.877Z,31.40
2019-03-26T22:13:30.097Z,24.97
2019-03-26T22:15:57.807Z,28.00
2019-03-26T22:18:24.502Z,31.10
2019-03-26T22:20:52.831Z,22.37
2019-03-26T22:23:20.809Z,36.97
2019-03-26T22:25:49.060Z,26.33
2019-03-26T22:28:17.125Z,28.83
2019-03-26T22:30:44.529Z,33.13
2019-03-26T22:33:11.817Z,23.97
2019-03-26T22:35:38.867Z,28.87
2019-03-26T22:38:05.685Z,34.80
2019-03-26T22:40:35.819Z,32.50
2019-03-26T22:43:04.479Z,27.90
2019-03-26T22:45:33.615Z,31.80
2019-03-26T22:48:03.194Z,28.50
2019-03-26T22:50:31.706Z,34.40
2019-03-26T22:52:59.770Z,26.40
2019-03-26T22:55:29.827Z,30.80
2019-03-26T22:57:59.393Z,28.17
2019-03-26T23:00:28.546Z,24.23
2019-03-26T23:02:58.793Z,29.57
2019-03-26T23:05:28.413Z,27.60
2019-03-26T23:07:55.435Z,27.97
2019-03-26T23:10:26.871Z,35.40
2019-03-26T23:12:56.220Z,32.87
2019-03-26T23:15:26.568Z,24.10
2019-03-26T23:17:54.973Z,31.60
2019-03-26T23:20:22.049Z,27.67
2019-03-26T23:22:49.392Z,34.73
2019-03-26T23:25:16.542Z,35.37
2019-03-26T23:27:43.451Z,27.93
2019-03-26T23:30:11.968Z,31.93
2019-03-26T23:32:38.825Z,28.50
2019-03-26T23:35:07.510Z,35.67
2019-03-26T23:37:34.354Z,34.93
2019-03-26T23:40:01.312Z,34.77
2019-03-26T23:42:28.215Z,34.10
2019-03-26T23:44:58.634Z,31.10
2019-03-26T23:47:23.611Z,30.30
2019-03-26T23:49:51.257Z,24.63
2019-03-26T23:52:21.637Z,38.17
2019-03-26T23:54:50.573Z,33.67
2019-03-26T23:57:21.117Z,22.50
2019-03-26T23:59:47.767Z,30.07
